ADDS METAR Data INFO
IDs: Format: Raw Decoded Include TAF

Data at: 0940 UTC 25 Jun 2018

KMXO 250935Z AUTO 10010G17KT 10SM CLR 18/16 A3002 RMK AO2
KMXO 250915Z AUTO 09011G16KT 10SM CLR 18/16 A3002 RMK AO2
KMXO 250855Z AUTO 09009G16KT 10SM CLR 19/16 A3004 RMK AO2
KMXO 250835Z AUTO 10012G19KT 10SM CLR 19/16 A3004 RMK AO2
KMXO 250815Z AUTO 11011G16KT 10SM CLR 19/16 A3004 RMK AO2
KMXO 250755Z AUTO 11012KT 9SM CLR 19/16 A3005 RMK AO2
KMXO 250735Z AUTO 10008KT 10SM CLR 19/16 A3005 RMK AO2
KMXO 250715Z AUTO 10009KT 10SM CLR 20/16 A3005 RMK AO2
KMXO 250655Z AUTO 08009KT 10SM CLR 20/17 A3004 RMK AO2
KMXO 250635Z AUTO 10007KT 10SM CLR 20/17 A3005 RMK AO2
KMXO 250615Z AUTO 09007KT 10SM CLR 20/18 A3005 RMK AO2
KMXO 250555Z AUTO 10006KT 10SM FEW050 20/18 A3005 RMK AO2
KMXO 250535Z AUTO 09005KT 10SM FEW050 20/18 A3004 RMK AO2
KMXO 250515Z AUTO 07005KT 10SM SCT050 SCT055 19/18 A3004 RMK AO2
KMXO 250455Z AUTO 00000KT 10SM CLR 18/18 A3004 RMK AO2
KMXO 250435Z AUTO 00000KT 10SM CLR 19/18 A3004 RMK AO2
KMXO 250415Z AUTO 00000KT 10SM CLR 19/18 A3003 RMK AO2
KMXO 250355Z AUTO 00000KT 10SM CLR 19/18 A3004 RMK AO2
KMXO 250335Z AUTO 00000KT 10SM CLR 20/18 A3004 RMK AO2
KMXO 250315Z AUTO 13003KT 10SM CLR 20/18 A3002 RMK AO2
KMXO 250255Z AUTO 00000KT 10SM CLR 20/18 A3001 RMK AO2
KMXO 250235Z AUTO 00000KT 10SM CLR 21/18 A3000 RMK AO2
KMXO 250215Z AUTO 10003KT 10SM CLR 22/18 A2999 RMK AO2
KMXO 250155Z AUTO 10004KT 10SM CLR 22/18 A2999 RMK AO2
KMXO 250135Z AUTO 12003KT 10SM CLR 22/19 A2998 RMK AO2
KMXO 250115Z AUTO 13004KT 10SM CLR 23/18 A2998 RMK AO2
KMXO 250055Z AUTO 12005KT 10SM CLR 24/18 A2998 RMK AO2
KMXO 250035Z AUTO 13004KT 10SM CLR 24/18 A2997 RMK AO2
KMXO 250015Z AUTO 13005KT 10SM CLR 25/17 A2996 RMK AO2
KMXO 242355Z AUTO 13007KT 10SM CLR 25/17 A2996 RMK AO2
KMXO 242335Z AUTO 11007KT 10SM CLR 26/17 A2997 RMK AO2
KMXO 242315Z AUTO 12007KT 10SM CLR 27/17 A2997 RMK AO2
KMXO 242255Z AUTO 12006G12KT 10SM FEW045 27/18 A2995 RMK AO2
KMXO 242235Z AUTO 11008G13KT 10SM CLR 27/18 A2995 RMK AO2
KMXO 242215Z AUTO 13009KT 10SM FEW045 27/18 A2995 RMK AO2
KMXO 242155Z AUTO 11011KT 10SM SCT046 27/17 A2996 RMK AO2
KMXO 242135Z AUTO 11009KT 10SM CLR 27/17 A2996 RMK AO2
KMXO 242115Z AUTO 15010KT 10SM FEW044 27/17 A2996 RMK AO2
KMXO 242055Z AUTO 13008G13KT 10SM SCT043 SCT050 27/18 A2996 RMK AO2
KMXO 242035Z AUTO 14008KT 10SM FEW044 FEW050 27/18 A2996 RMK AO2
KMXO 242015Z AUTO 13009KT 10SM FEW042 SCT049 27/18 A2997 RMK AO2
KMXO 241955Z AUTO 16007KT 10SM FEW043 27/18 A2997 RMK AO2
KMXO 241935Z AUTO 17005G10KT 10SM FEW044 27/18 A2997 RMK AO2
KMXO 241915Z AUTO 16008KT 10SM CLR 27/18 A2997 RMK AO2
KMXO 241855Z AUTO VRB06KT 10SM FEW043 27/17 A2997 RMK AO2
KMXO 241835Z AUTO 15005KT 10SM SCT042 27/18 A2998 RMK AO2
KMXO 241815Z AUTO 00000KT 10SM FEW040 27/17 A2998 RMK AO2
KMXO 241755Z AUTO 15006KT 10SM FEW040 26/18 A2998 RMK AO2
KMXO 241735Z AUTO VRB04G11KT 10SM CLR 26/17 A2997 RMK AO2
KMXO 241715Z AUTO 15006KT 10SM CLR 26/18 A2998 RMK AO2
KMXO 241655Z AUTO 16007KT 130V200 10SM CLR 26/17 A2997 RMK AO2
KMXO 241635Z AUTO VRB04KT 10SM CLR 26/17 A2996 RMK AO2
KMXO 241615Z AUTO 14006KT 10SM FEW034 26/17 A2996 RMK AO2
KMXO 241555Z AUTO 16007KT 10SM FEW034 26/18 A2995 RMK AO2
KMXO 241535Z AUTO 14005KT 10SM CLR 25/17 A2994 RMK AO2
KMXO 241515Z AUTO 16005KT 10SM CLR 25/18 A2993 RMK AO2
KMXO 241455Z AUTO 15005KT 10SM CLR 25/18 A2993 RMK AO2
KMXO 241435Z AUTO 00000KT 10SM CLR 24/18 A2993 RMK AO2
KMXO 241415Z AUTO 00000KT 10SM CLR 24/19 A2993 RMK AO2
KMXO 241355Z AUTO 00000KT 10SM CLR 23/19 A2993 RMK AO2
KMXO 241335Z AUTO 00000KT 10SM CLR 22/19 A2993 RMK AO2
KMXO 241315Z AUTO 00000KT 10SM CLR 21/19 A2993 RMK AO2
KMXO 241255Z AUTO 00000KT 9SM CLR 19/18 A2992 RMK AO2
KMXO 241235Z AUTO 00000KT 8SM CLR 18/18 A2992 RMK AO2
KMXO 241215Z AUTO 17003KT 7SM CLR 16/16 A2992 RMK AO2
KMXO 241155Z AUTO 00000KT 8SM CLR 15/15 A2990 RMK AO2
KMXO 241135Z AUTO 00000KT 7SM CLR 14/14 A2989 RMK AO2
KMXO 241115Z AUTO 00000KT 6SM BR CLR 13/13 A2988 RMK AO2
KMXO 241055Z AUTO 00000KT 2 1/2SM BR FEW002 13/13 A2987 RMK AO2
KMXO 241035Z AUTO 00000KT 4SM BR CLR 13/13 A2987 RMK AO2
KMXO 241015Z AUTO 00000KT 10SM CLR 13/13 A2987 RMK AO2
KMXO 240955Z AUTO 00000KT 7SM CLR 13/13 A2987 RMK AO2
KMXO 240935Z AUTO 00000KT 9SM CLR 13/13 A2987 RMK AO2
KMXO 240915Z AUTO 00000KT 6SM BR CLR 13/13 A2987 RMK AO2
KMXO 240855Z AUTO 00000KT 5SM BR CLR 14/14 A2985 RMK AO2
KMXO 240835Z AUTO 00000KT 7SM CLR 14/14 A2986 RMK AO2
KMXO 240815Z AUTO 00000KT 10SM CLR 13/13 A2986 RMK AO2
KMXO 240755Z AUTO 00000KT 5SM BR CLR 14/14 A2985 RMK AO2
KMXO 240735Z AUTO 00000KT 6SM BR CLR 15/15 A2985 RMK AO2
KMXO 240715Z AUTO 00000KT 8SM CLR 14/14 A2985 RMK AO2
KMXO 240655Z AUTO 00000KT 9SM CLR 15/15 A2984 RMK AO2
KMXO 240635Z AUTO 00000KT 7SM CLR 15/15 A2984 RMK AO2
KMXO 240615Z AUTO 00000KT 6SM BR CLR 14/14 A2985 RMK AO2
KMXO 240555Z AUTO 00000KT 6SM BR CLR 15/15 A2985 RMK AO2
KMXO 240535Z AUTO 00000KT 6SM BR CLR 15/15 A2985 RMK AO2
KMXO 240515Z AUTO 00000KT 8SM CLR 15/15 A2985 RMK AO2
KMXO 240455Z AUTO 00000KT 7SM CLR 16/16 A2985 RMK AO2
KMXO 240435Z AUTO 00000KT 7SM CLR 16/16 A2984 RMK AO2
KMXO 240415Z AUTO 00000KT 7SM CLR 16/16 A2984 RMK AO2
KMXO 240355Z AUTO 19003KT 9SM CLR 16/16 A2984 RMK AO2
KMXO 240335Z AUTO 00000KT 10SM CLR 16/16 A2983 RMK AO2
KMXO 240315Z AUTO 00000KT 10SM CLR 17/17 A2983 RMK AO2
KMXO 240255Z AUTO 00000KT 10SM CLR 17/17 A2982 RMK AO2
KMXO 240235Z AUTO 00000KT 10SM FEW120 18/18 A2982 RMK AO2
KMXO 240215Z AUTO 00000KT 10SM BKN120 19/18 A2981 RMK AO2
KMXO 240155Z AUTO 00000KT 10SM FEW120 19/19 A2981 RMK AO2
KMXO 240135Z AUTO 00000KT 10SM SCT120 20/19 A2980 RMK AO2
KMXO 240115Z AUTO 00000KT 10SM BKN120 21/19 A2979 RMK AO2
KMXO 240055Z AUTO 00000KT 10SM CLR 22/18 A2979 RMK AO2
KMXO 240035Z AUTO 00000KT 10SM FEW100 FEW120 23/18 A2978 RMK AO2
KMXO 240015Z AUTO 11004KT 10SM BKN100 23/18 A2977 RMK AO2
KMXO 232355Z AUTO 15003KT 10SM SCT100 23/18 A2978 RMK AO2
KMXO 232335Z AUTO 14003KT 10SM FEW095 23/17 A2978 RMK AO2
KMXO 232315Z AUTO 00000KT 10SM FEW095 24/17 A2979 RMK AO2
KMXO 232255Z AUTO VRB04KT 10SM CLR 24/17 A2979 RMK AO2
KMXO 232235Z AUTO 07005KT 10SM CLR 24/19 A2979 RMK AO2
KMXO 232215Z AUTO 00000KT 8SM -RA CLR 23/19 A2979 RMK AO2
KMXO 232155Z AUTO 06003KT 10SM CLR 23/18 A2979 RMK AO2